createdAt,value
2024-03-13T00:00:20.786Z,0.80
2024-03-13T00:02:57.887Z,1.30
2024-03-13T00:05:12.963Z,0.80
2024-03-13T00:07:25.839Z,0.90
2024-03-13T00:09:51.943Z,0.80
2024-03-13T00:12:25.280Z,1.10
2024-03-13T00:14:42.076Z,0.90
2024-03-13T00:16:59.490Z,1.30
2024-03-13T00:19:13.072Z,1.40
2024-03-13T00:21:26.747Z,0.90
2024-03-13T00:23:42.649Z,1.00
2024-03-13T00:25:55.834Z,0.90
2024-03-13T00:28:09.955Z,1.10
2024-03-13T00:30:23.218Z,1.10
2024-03-13T00:32:36.708Z,0.90
2024-03-13T00:35:03.752Z,1.30
2024-03-13T00:37:16.724Z,1.10
2024-03-13T00:39:29.614Z,0.90
2024-03-13T00:41:43.444Z,1.30
2024-03-13T00:43:56.476Z,1.00
2024-03-13T00:46:10.506Z,0.90
2024-03-13T00:48:23.522Z,0.90
2024-03-13T00:50:37.285Z,1.00
2024-03-13T00:52:51.301Z,0.90
2024-03-13T00:55:05.054Z,0.70
2024-03-13T00:57:19.549Z,1.00
2024-03-13T00:59:36.600Z,1.40
2024-03-13T01:01:59.708Z,0.80
2024-03-13T01:04:13.382Z,1.00
2024-03-13T01:06:27.821Z,0.90
2024-03-13T01:08:40.791Z,1.00
2024-03-13T01:10:53.921Z,1.00
2024-03-13T01:13:07.587Z,1.10
2024-03-13T01:15:20.489Z,1.00
2024-03-13T01:17:44.572Z,0.90
2024-03-13T01:19:57.868Z,0.70
2024-03-13T01:22:15.250Z,1.20
2024-03-13T01:24:29.007Z,1.10
2024-03-13T01:26:45.205Z,1.30
2024-03-13T01:29:01.466Z,0.90
2024-03-13T01:31:14.498Z,1.20
2024-03-13T01:33:31.052Z,1.30
2024-03-13T01:35:47.438Z,1.10
2024-03-13T01:38:00.911Z,1.20
2024-03-13T01:40:21.456Z,1.50
2024-03-13T01:42:51.467Z,1.70
2024-03-13T01:45:45.644Z,1.10
2024-03-13T01:48:19.966Z,1.00
2024-03-13T01:50:49.794Z,1.10
2024-03-13T01:53:32.792Z,0.90
2024-03-13T01:55:51.279Z,1.10
2024-03-13T01:58:21.834Z,0.80
2024-03-13T02:01:03.791Z,1.30
2024-03-13T02:03:20.135Z,1.00
2024-03-13T02:05:36.116Z,0.90
2024-03-13T02:07:52.763Z,1.50
2024-03-13T02:10:09.296Z,1.40
2024-03-13T02:12:25.740Z,1.40
2024-03-13T02:17:00.328Z,1.00
2024-03-13T02:19:17.248Z,1.10
2024-03-13T02:21:30.744Z,0.90
2024-03-13T02:23:41.323Z,1.40
2024-03-13T02:25:59.753Z,1.10
2024-03-13T02:28:09.734Z,1.30
2024-03-13T02:30:22.830Z,1.50
2024-03-13T02:32:35.987Z,1.40
2024-03-13T02:34:49.236Z,1.70
2024-03-13T02:36:58.786Z,1.20
2024-03-13T02:39:07.737Z,1.00
2024-03-13T02:41:20.138Z,1.50
2024-03-13T02:43:50.126Z,1.50
2024-03-13T02:46:08.307Z,1.30
2024-03-13T02:48:20.607Z,1.20
2024-03-13T02:50:30.732Z,1.10
2024-03-13T02:52:39.642Z,1.30
2024-03-13T02:54:49.758Z,1.70
2024-03-13T02:56:59.712Z,1.20
2024-03-13T02:59:22.407Z,1.40
2024-03-13T03:01:31.500Z,0.90
2024-03-13T03:03:51.496Z,0.90
2024-03-13T03:06:09.661Z,1.00
2024-03-13T03:08:42.590Z,1.40
2024-03-13T03:11:03.416Z,1.10
2024-03-13T03:13:21.663Z,0.80
2024-03-13T03:15:38.408Z,1.00
2024-03-13T03:17:51.489Z,1.00
2024-03-13T03:20:06.275Z,1.30
2024-03-13T03:22:15.932Z,1.00
2024-03-13T03:24:27.744Z,1.10
2024-03-13T03:26:36.925Z,1.00
2024-03-13T03:28:45.744Z,0.90
2024-03-13T03:30:58.982Z,1.00
2024-03-13T03:33:08.295Z,1.10
2024-03-13T03:35:21.469Z,0.90
2024-03-13T03:37:30.468Z,0.90
2024-03-13T03:39:40.540Z,1.30
2024-03-13T03:41:50.146Z,0.90
2024-03-13T03:44:02.108Z,0.90
2024-03-13T03:46:22.318Z,1.10
2024-03-13T03:48:34.677Z,0.70
2024-03-13T03:50:43.756Z,1.10
2024-03-13T03:52:56.078Z,0.90
2024-03-13T03:55:25.017Z,1.40
2024-03-13T03:57:44.819Z,1.20
2024-03-13T04:00:14.825Z,1.00
2024-03-13T04:02:23.873Z,1.00
2024-03-13T04:04:32.924Z,0.90
2024-03-13T04:06:43.398Z,0.70
2024-03-13T04:08:53.966Z,1.10
2024-03-13T04:11:04.039Z,0.90
2024-03-13T04:13:18.265Z,1.40
2024-03-13T04:15:28.716Z,0.80
2024-03-13T04:17:42.704Z,1.10
2024-03-13T04:19:51.840Z,0.90
2024-03-13T04:22:04.592Z,1.10
2024-03-13T04:24:24.326Z,1.20
2024-03-13T04:26:36.522Z,0.70
2024-03-13T04:28:50.271Z,1.10
2024-03-13T04:30:59.361Z,1.00
2024-03-13T04:33:08.701Z,1.20
2024-03-13T04:35:22.868Z,1.70
2024-03-13T04:37:31.887Z,1.10
2024-03-13T04:39:41.016Z,1.10
2024-03-13T04:41:53.732Z,1.20
2024-03-13T04:44:06.736Z,1.10
2024-03-13T04:46:19.271Z,0.80
2024-03-13T04:48:39.353Z,1.20
2024-03-13T04:50:58.643Z,1.30
2024-03-13T04:55:19.104Z,0.80
2024-03-13T04:57:28.143Z,0.90
2024-03-13T04:59:57.774Z,1.00
2024-03-13T05:02:08.335Z,1.00
2024-03-13T05:04:17.370Z,1.20
2024-03-13T05:06:35.350Z,1.00
2024-03-13T05:08:44.786Z,1.60
2024-03-13T05:10:53.633Z,1.40
2024-03-13T05:15:16.887Z,1.30
2024-03-13T05:17:38.603Z,1.00
2024-03-13T05:19:47.551Z,1.10
2024-03-13T05:21:56.594Z,1.30
2024-03-13T05:24:09.198Z,1.30
2024-03-13T05:26:21.065Z,1.60
2024-03-13T05:28:33.632Z,1.10
2024-03-13T05:30:46.072Z,1.40
2024-03-13T05:33:15.028Z,1.70
2024-03-13T05:35:44.050Z,1.20
2024-03-13T05:37:52.970Z,1.60
2024-03-13T05:40:23.022Z,1.40
2024-03-13T05:42:43.974Z,1.50
2024-03-13T05:44:56.422Z,1.20
2024-03-13T05:47:05.343Z,1.30
2024-03-13T05:49:19.345Z,2.10
2024-03-13T05:51:28.694Z,1.70
2024-03-13T05:53:37.726Z,1.50
2024-03-13T05:55:49.925Z,1.70
2024-03-13T05:57:59.172Z,1.70
2024-03-13T06:02:24.565Z,1.60
2024-03-13T06:04:37.885Z,2.00
2024-03-13T06:06:48.084Z,1.60
2024-03-13T06:09:00.653Z,1.20
2024-03-13T06:11:10.616Z,1.50
2024-03-13T06:13:19.572Z,1.60
2024-03-13T06:15:28.523Z,1.80
2024-03-13T06:17:37.846Z,1.30
2024-03-13T06:19:47.228Z,1.30
2024-03-13T06:21:56.252Z,1.50
2024-03-13T06:26:19.436Z,1.50
2024-03-13T06:28:44.312Z,1.40
2024-03-13T06:30:56.419Z,1.20
2024-03-13T06:33:06.497Z,1.20
2024-03-13T06:35:15.498Z,1.40
2024-03-13T06:37:24.764Z,1.20
2024-03-13T06:39:43.562Z,1.30
2024-03-13T06:41:56.389Z,1.50
2024-03-13T06:44:08.595Z,1.40
2024-03-13T06:46:18.085Z,1.40
2024-03-13T06:48:30.619Z,1.60
2024-03-13T06:50:42.900Z,1.50
2024-03-13T06:52:51.889Z,1.90
2024-03-13T06:55:20.844Z,1.40
2024-03-13T06:57:40.921Z,1.60
2024-03-13T06:59:49.876Z,1.90
2024-03-13T07:01:59.144Z,1.60
2024-03-13T07:04:18.223Z,1.30
2024-03-13T07:06:27.660Z,1.50
2024-03-13T07:08:40.188Z,1.50
2024-03-13T07:10:49.369Z,2.50
2024-03-13T07:12:58.220Z,1.60
2024-03-13T07:15:17.500Z,1.20
2024-03-13T07:17:30.231Z,1.50
2024-03-13T07:19:40.367Z,1.20
2024-03-13T07:21:49.325Z,1.20
2024-03-13T07:23:58.386Z,1.90
2024-03-13T07:26:09.823Z,1.20
2024-03-13T07:28:21.899Z,1.40
2024-03-13T07:30:31.553Z,1.40
2024-03-13T07:32:44.120Z,1.30
2024-03-13T07:34:53.878Z,1.10
2024-03-13T07:37:02.809Z,1.50
2024-03-13T07:39:16.881Z,1.40
2024-03-13T07:41:26.172Z,2.00
2024-03-13T07:43:35.235Z,1.70
2024-03-13T07:45:57.818Z,1.40
2024-03-13T07:48:11.124Z,1.10
2024-03-13T07:50:31.140Z,1.30
2024-03-13T07:52:50.614Z,1.70
2024-03-13T07:54:59.371Z,1.50
2024-03-13T07:57:08.593Z,1.60
2024-03-13T07:59:20.778Z,1.60
2024-03-13T08:01:29.888Z,1.80
2024-03-13T08:03:58.816Z,1.40
2024-03-13T09:06:54.628Z,2.30
2024-03-13T09:09:05.662Z,2.10
2024-03-13T09:11:19.160Z,1.70
2024-03-13T09:13:28.379Z,1.70
2024-03-13T09:15:40.812Z,2.00
2024-03-13T09:17:54.368Z,2.00
2024-03-13T09:20:16.087Z,1.80
2024-03-13T09:22:25.148Z,1.50
2024-03-13T09:24:48.121Z,2.00
2024-03-13T09:26:58.863Z,1.50
2024-03-13T09:29:11.099Z,1.90
2024-03-13T09:31:23.742Z,1.50
2024-03-13T09:33:35.686Z,1.80
2024-03-13T09:35:44.814Z,2.20
2024-03-13T09:37:54.610Z,1.80
2024-03-13T09:40:07.060Z,1.80
2024-03-13T09:42:19.987Z,1.30
2024-03-13T09:44:28.905Z,1.90
2024-03-13T09:46:38.180Z,1.50
2024-03-13T09:48:50.632Z,1.80
2024-03-13T09:51:02.150Z,1.60
2024-03-13T09:53:13.044Z,1.50
2024-03-13T09:55:25.157Z,1.70
2024-03-13T09:57:34.484Z,1.40
2024-03-13T09:59:46.675Z,1.30
2024-03-13T10:02:05.752Z,1.90
2024-03-13T10:04:26.708Z,1.80
2024-03-13T10:06:35.785Z,1.90
2024-03-13T10:09:05.653Z,1.80
2024-03-13T10:11:17.019Z,1.60
2024-03-13T10:13:29.753Z,1.60
2024-03-13T10:15:38.677Z,1.80
2024-03-13T10:17:47.936Z,1.90
2024-03-13T10:20:10.469Z,1.80
2024-03-13T10:22:19.348Z,1.70
2024-03-13T10:24:28.275Z,1.40
2024-03-13T10:26:41.358Z,1.40
2024-03-13T10:28:50.373Z,1.80
2024-03-13T10:31:19.284Z,1.60
2024-03-13T10:35:41.520Z,1.70
2024-03-13T10:37:50.626Z,2.30
2024-03-13T10:40:02.645Z,1.90
2024-03-13T10:42:12.108Z,2.20
2024-03-13T10:44:30.037Z,1.70
2024-03-13T10:47:10.558Z,1.90
2024-03-13T10:49:19.681Z,1.40
2024-03-13T10:51:28.302Z,1.50
2024-03-13T10:53:37.456Z,2.00
2024-03-13T10:55:46.834Z,2.20
2024-03-13T10:57:56.933Z,1.80
2024-03-13T11:00:05.969Z,1.90
2024-03-13T11:02:14.745Z,2.40
2024-03-13T11:04:23.554Z,1.70
2024-03-13T11:06:32.471Z,1.90
2024-03-13T11:08:41.865Z,1.70
2024-03-13T11:11:02.162Z,1.70
2024-03-13T11:13:19.846Z,1.70
2024-03-13T11:15:31.780Z,2.50
2024-03-13T11:17:42.953Z,1.80
2024-03-13T11:19:52.056Z,1.80
2024-03-13T11:22:04.497Z,2.10
2024-03-13T11:24:14.296Z,1.60
2024-03-13T11:26:23.311Z,2.00
2024-03-13T11:28:32.263Z,2.00
2024-03-13T11:30:40.905Z,1.80
2024-03-13T11:32:51.115Z,2.30
2024-03-13T11:34:59.766Z,1.90
2024-03-13T11:37:13.476Z,1.70
2024-03-13T11:39:23.698Z,1.80
2024-03-13T11:41:33.730Z,2.00
2024-03-13T11:43:42.460Z,1.70
2024-03-13T11:45:51.159Z,1.60
2024-03-13T11:48:03.433Z,1.40
2024-03-13T11:50:13.457Z,1.90
2024-03-13T11:52:22.297Z,1.70
2024-03-13T11:54:34.791Z,2.10
2024-03-13T11:56:44.282Z,2.80
2024-03-13T11:58:53.701Z,2.30
2024-03-13T12:01:03.303Z,2.00
2024-03-13T12:03:13.945Z,1.60
2024-03-13T12:05:36.075Z,2.00
2024-03-13T12:07:45.232Z,2.00
2024-03-13T12:09:54.233Z,1.90
2024-03-13T12:12:06.507Z,1.60
2024-03-13T12:14:16.147Z,1.80
2024-03-13T12:16:24.879Z,1.70
2024-03-13T12:18:33.587Z,1.40
2024-03-13T12:20:44.168Z,1.60
2024-03-13T12:22:53.069Z,1.70
2024-03-13T12:25:01.887Z,1.40
2024-03-13T12:27:11.924Z,1.40
2024-03-13T12:29:20.647Z,1.30
2024-03-13T12:31:29.897Z,1.70
2024-03-13T12:33:38.849Z,1.60
2024-03-13T12:35:51.331Z,1.60
2024-03-13T12:38:00.154Z,1.50
2024-03-13T12:40:10.755Z,1.70
2024-03-13T12:42:20.505Z,1.60
2024-03-13T12:44:32.529Z,1.70
2024-03-13T12:46:42.627Z,1.50
2024-03-13T12:48:52.065Z,1.60
2024-03-13T12:51:00.887Z,1.70
2024-03-13T12:53:10.206Z,1.40
2024-03-13T12:55:22.203Z,1.60
2024-03-13T12:57:32.752Z,1.60
2024-03-13T12:59:53.886Z,1.40
2024-03-13T13:02:04.287Z,2.10
2024-03-13T13:04:13.521Z,2.20
2024-03-13T13:06:22.384Z,1.30
2024-03-13T13:08:30.962Z,1.40
2024-03-13T13:10:40.246Z,2.20
2024-03-13T13:12:49.842Z,2.00
2024-03-13T13:14:59.427Z,1.60
2024-03-13T13:17:09.717Z,1.70
2024-03-13T13:19:18.245Z,1.30
2024-03-13T13:21:27.287Z,1.90
2024-03-13T13:23:35.958Z,1.70
2024-03-13T13:25:44.845Z,2.90
2024-03-13T13:27:56.239Z,1.60
2024-03-13T13:30:05.497Z,2.20
2024-03-13T13:32:14.745Z,2.80
2024-03-13T13:34:23.354Z,1.90
2024-03-13T13:36:32.122Z,1.50
2024-03-13T13:38:40.807Z,2.00
2024-03-13T13:40:52.264Z,1.80
2024-03-13T13:43:01.190Z,1.70
2024-03-13T13:45:12.304Z,1.80
2024-03-13T13:47:20.975Z,1.50
2024-03-13T13:49:29.614Z,1.80
2024-03-13T13:51:38.287Z,2.30
2024-03-13T13:53:46.928Z,1.80
2024-03-13T13:55:55.799Z,2.30
2024-03-13T13:58:06.094Z,1.90
2024-03-13T14:00:19.760Z,1.90
2024-03-13T14:02:31.858Z,1.80
2024-03-13T14:04:40.847Z,1.70
2024-03-13T14:06:49.596Z,1.80
2024-03-13T14:08:58.216Z,1.80
2024-03-13T14:11:08.422Z,1.90
2024-03-13T14:13:18.164Z,1.60
2024-03-13T14:15:27.089Z,1.80
2024-03-13T14:17:38.141Z,2.10
2024-03-13T14:19:47.195Z,1.70
2024-03-13T14:21:57.009Z,2.00
2024-03-13T14:24:07.008Z,2.00
2024-03-13T14:26:15.751Z,2.20
2024-03-13T14:28:25.095Z,1.90
2024-03-13T14:30:33.707Z,2.00
2024-03-13T14:32:42.616Z,2.00
2024-03-13T14:34:59.325Z,2.20
2024-03-13T14:37:08.665Z,2.20
2024-03-13T14:39:19.020Z,2.40
2024-03-13T14:41:27.962Z,2.00
2024-03-13T14:43:37.318Z,2.00
2024-03-13T14:45:46.237Z,2.10
2024-03-13T14:47:55.350Z,2.60
2024-03-13T14:50:04.309Z,2.40
2024-03-13T14:52:13.145Z,2.40
2024-03-13T14:54:21.800Z,2.00
2024-03-13T14:56:31.063Z,2.20
2024-03-13T14:58:39.767Z,2.20
2024-03-13T15:00:50.654Z,2.40
2024-03-13T15:03:00.826Z,2.00
2024-03-13T15:05:10.273Z,2.10
2024-03-13T15:07:19.383Z,2.40
2024-03-13T15:09:28.020Z,2.20
2024-03-13T15:11:36.726Z,1.90
2024-03-13T15:13:49.155Z,2.70
2024-03-13T15:15:57.730Z,1.70
2024-03-13T15:18:06.573Z,2.20
2024-03-13T15:20:15.421Z,2.00
2024-03-13T15:22:26.624Z,2.20
2024-03-13T15:24:35.259Z,1.70
2024-03-13T15:26:44.163Z,2.20
2024-03-13T15:28:52.812Z,1.60
2024-03-13T15:31:01.398Z,2.00
2024-03-13T15:33:10.139Z,2.40
2024-03-13T15:35:18.941Z,2.30
2024-03-13T15:37:27.869Z,2.20
2024-03-13T15:39:36.596Z,2.40
2024-03-13T15:41:46.042Z,2.80
2024-03-13T15:43:55.387Z,2.80
2024-03-13T15:46:04.082Z,2.10
2024-03-13T15:48:13.049Z,2.30
2024-03-13T15:50:29.176Z,2.00
2024-03-13T15:52:41.785Z,2.30
2024-03-13T15:54:50.848Z,2.40
2024-03-13T15:56:59.504Z,2.30
2024-03-13T15:59:08.422Z,2.40
2024-03-13T16:01:17.802Z,2.90
2024-03-13T16:03:26.810Z,2.10
2024-03-13T16:05:35.769Z,2.20
2024-03-13T16:07:44.541Z,1.80
2024-03-13T16:09:54.116Z,1.90
2024-03-13T16:12:05.024Z,1.60
2024-03-13T16:14:16.385Z,2.00
2024-03-13T16:16:28.330Z,1.50
2024-03-13T16:18:37.050Z,2.20
2024-03-13T16:20:46.854Z,2.30
2024-03-13T16:22:55.406Z,2.10
2024-03-13T16:25:03.930Z,2.90
2024-03-13T16:27:12.611Z,2.00
2024-03-13T16:29:21.277Z,2.40
2024-03-13T16:31:29.871Z,2.20
2024-03-13T16:33:38.805Z,2.60
2024-03-13T16:35:47.488Z,2.30
2024-03-13T16:37:56.186Z,2.80
2024-03-13T16:40:06.481Z,3.30
2024-03-13T16:42:15.234Z,2.80
2024-03-13T16:44:24.685Z,2.70
2024-03-13T16:46:34.256Z,3.10
2024-03-13T16:48:43.400Z,2.80
2024-03-13T16:50:52.278Z,2.90
2024-03-13T16:53:00.974Z,2.50
2024-03-13T16:55:10.192Z,3.20
2024-03-13T16:57:18.850Z,3.50
2024-03-13T16:59:28.013Z,2.80
2024-03-13T17:01:36.694Z,2.90
2024-03-13T17:03:46.917Z,3.10
2024-03-13T17:05:56.363Z,2.70
2024-03-13T17:08:05.734Z,2.50
2024-03-13T17:10:14.501Z,4.10
2024-03-13T17:12:24.009Z,3.40
2024-03-13T17:14:33.796Z,2.90
2024-03-13T17:16:43.430Z,3.20
2024-03-13T17:18:52.289Z,3.10
2024-03-13T17:21:01.647Z,3.10
2024-03-13T17:23:12.958Z,3.20
2024-03-13T17:25:24.094Z,3.40
2024-03-13T17:27:32.758Z,3.80
2024-03-13T17:29:41.746Z,3.60
2024-03-13T17:31:50.336Z,2.80
2024-03-13T17:33:59.136Z,2.80
2024-03-13T17:36:09.411Z,2.80
2024-03-13T17:38:18.063Z,3.20
2024-03-13T17:40:26.722Z,3.40
2024-03-13T17:42:35.311Z,3.60
2024-03-13T17:44:45.476Z,3.40
2024-03-13T17:46:54.091Z,3.80
2024-03-13T17:49:02.890Z,3.20
2024-03-13T17:51:13.623Z,3.10
2024-03-13T17:53:22.367Z,3.60
2024-03-13T17:55:31.583Z,2.90
2024-03-13T17:57:40.436Z,3.60
2024-03-13T17:59:49.776Z,3.50
2024-03-13T18:01:58.465Z,2.80
2024-03-13T18:04:10.232Z,3.20
2024-03-13T18:06:22.285Z,3.50
2024-03-13T18:10:39.303Z,3.40
2024-03-13T18:12:49.124Z,3.10
2024-03-13T18:14:58.219Z,3.10
2024-03-13T18:17:07.002Z,3.20
2024-03-13T18:19:15.932Z,3.10
2024-03-13T18:21:26.692Z,3.10
2024-03-13T18:23:35.258Z,3.30
2024-03-13T18:25:44.085Z,3.20
2024-03-13T18:27:52.730Z,3.70
2024-03-13T18:30:06.621Z,3.10
2024-03-13T18:32:15.286Z,2.80
2024-03-13T18:34:23.967Z,3.30
2024-03-13T18:36:32.646Z,3.50
2024-03-13T18:38:41.465Z,3.60
2024-03-13T18:40:50.535Z,3.10
2024-03-13T18:42:59.178Z,3.20
2024-03-13T18:45:08.524Z,2.80
2024-03-13T18:47:17.165Z,3.00
2024-03-13T18:49:25.713Z,3.20
2024-03-13T18:51:34.451Z,2.90
2024-03-13T18:53:44.128Z,3.10
2024-03-13T18:55:53.087Z,3.20
2024-03-13T18:58:01.808Z,2.50
2024-03-13T19:00:15.288Z,2.70
2024-03-13T19:02:25.794Z,2.60
2024-03-13T19:04:35.605Z,3.00
2024-03-13T19:06:45.258Z,3.00
2024-03-13T19:08:54.115Z,2.80
2024-03-13T19:11:03.257Z,2.70
2024-03-13T19:13:12.765Z,2.90
2024-03-13T19:15:21.943Z,2.90
2024-03-13T19:17:30.642Z,3.40
2024-03-13T19:19:39.523Z,3.00
2024-03-13T19:21:48.527Z,2.50
2024-03-13T19:23:58.565Z,3.10
2024-03-13T19:26:08.164Z,2.60
2024-03-13T19:28:16.898Z,2.90
2024-03-13T19:30:25.704Z,2.40
2024-03-13T19:32:34.310Z,3.20
2024-03-13T19:34:44.707Z,3.00
2024-03-13T19:36:53.356Z,2.80
2024-03-13T19:39:02.322Z,2.50
2024-03-13T19:41:11.118Z,2.50
2024-03-13T19:43:19.959Z,1.90
2024-03-13T19:45:29.269Z,2.90
2024-03-13T19:47:38.822Z,2.50
2024-03-13T19:49:47.604Z,2.20
2024-03-13T19:51:56.846Z,2.10
2024-03-13T19:54:05.604Z,1.40
2024-03-13T19:56:14.934Z,1.40
2024-03-13T19:58:23.550Z,1.40
2024-03-13T20:00:32.989Z,1.00
2024-03-13T20:02:41.792Z,1.50
2024-03-13T20:04:50.467Z,1.40
2024-03-13T20:06:59.218Z,1.30
2024-03-13T20:09:09.932Z,0.70
2024-03-13T20:11:19.561Z,1.70
2024-03-13T20:13:28.223Z,1.70
2024-03-13T20:15:37.308Z,1.30
2024-03-13T20:17:46.195Z,1.30
2024-03-13T20:19:55.823Z,1.80
2024-03-13T20:22:04.433Z,2.00
2024-03-13T20:24:13.610Z,1.50
2024-03-13T20:26:22.198Z,1.20
2024-03-13T20:28:30.813Z,1.30
2024-03-13T20:30:39.506Z,1.40
2024-03-13T20:32:48.284Z,1.30
2024-03-13T20:34:57.154Z,0.90
2024-03-13T20:37:05.891Z,1.10
2024-03-13T20:39:15.710Z,1.00
2024-03-13T20:41:25.054Z,1.00
2024-03-13T20:43:33.642Z,1.40
2024-03-13T20:45:42.620Z,1.40
2024-03-13T20:47:51.509Z,1.10
2024-03-13T20:50:00.852Z,1.40
2024-03-13T20:52:10.049Z,1.30
2024-03-13T20:54:18.808Z,1.30
2024-03-13T20:56:28.192Z,1.60
2024-03-13T20:58:38.149Z,1.10
2024-03-13T21:00:47.096Z,1.40
2024-03-13T21:02:57.963Z,1.30
2024-03-13T21:05:07.562Z,1.30
2024-03-13T21:07:16.305Z,1.20
2024-03-13T21:09:25.918Z,1.00
2024-03-13T21:11:34.843Z,1.10
2024-03-13T21:13:43.599Z,1.30
2024-03-13T21:15:57.098Z,1.20
2024-03-13T21:18:11.449Z,1.30
2024-03-13T21:20:22.153Z,1.20
2024-03-13T21:22:31.186Z,1.20
2024-03-13T21:24:39.991Z,1.10
2024-03-13T21:26:49.510Z,1.40
2024-03-13T21:28:59.263Z,1.20
2024-03-13T21:31:08.749Z,0.90
2024-03-13T21:33:17.418Z,1.60
2024-03-13T21:35:31.937Z,0.80
2024-03-13T21:37:40.888Z,0.90
2024-03-13T21:39:49.624Z,1.20
2024-03-13T21:41:58.266Z,0.90
2024-03-13T21:44:08.578Z,1.30
2024-03-13T21:46:18.018Z,0.80
2024-03-13T21:48:26.773Z,0.90
2024-03-13T21:50:35.620Z,1.10
2024-03-13T21:52:45.073Z,1.10
2024-03-13T21:54:53.773Z,1.50
2024-03-13T21:57:04.853Z,0.80
2024-03-13T21:59:13.624Z,0.90
2024-03-13T22:01:22.265Z,1.00
2024-03-13T22:03:30.970Z,1.10
2024-03-13T22:05:39.657Z,1.00
2024-03-13T22:07:48.256Z,0.80
2024-03-13T22:09:56.751Z,1.40
2024-03-13T22:12:05.532Z,1.00
2024-03-13T22:14:14.511Z,1.30
2024-03-13T22:16:24.390Z,0.90
2024-03-13T22:18:33.149Z,1.10
2024-03-13T22:20:42.481Z,1.20
2024-03-13T22:22:51.100Z,1.10
2024-03-13T22:24:59.766Z,0.90
2024-03-13T22:27:08.817Z,0.70
2024-03-13T22:29:17.717Z,1.10
2024-03-13T22:31:26.377Z,1.10
2024-03-13T22:33:35.700Z,1.00
2024-03-13T22:35:44.541Z,0.90
2024-03-13T22:37:53.106Z,1.10
2024-03-13T22:40:01.802Z,1.20
2024-03-13T22:42:11.184Z,0.70
2024-03-13T22:44:20.570Z,1.00
2024-03-13T22:46:30.186Z,0.90
2024-03-13T22:48:39.578Z,1.20
2024-03-13T22:50:48.378Z,1.30
2024-03-13T22:52:56.986Z,1.10
2024-03-13T22:55:06.189Z,0.70
2024-03-13T22:57:14.894Z,0.90
2024-03-13T22:59:23.927Z,0.70
2024-03-13T23:01:34.346Z,1.00
2024-03-13T23:03:43.122Z,0.70
2024-03-13T23:05:54.009Z,0.70
2024-03-13T23:08:02.723Z,0.70
2024-03-13T23:10:13.577Z,0.50
2024-03-13T23:12:22.925Z,0.60
2024-03-13T23:14:31.924Z,0.60
2024-03-13T23:16:40.944Z,0.80
2024-03-13T23:18:49.576Z,0.60
2024-03-13T23:21:00.489Z,0.70
2024-03-13T23:23:09.634Z,0.50
2024-03-13T23:25:18.454Z,0.70
2024-03-13T23:27:27.079Z,0.60
2024-03-13T23:29:35.795Z,0.60
2024-03-13T23:31:46.839Z,0.80
2024-03-13T23:33:57.376Z,1.00
2024-03-13T23:36:07.985Z,0.60
2024-03-13T23:38:16.739Z,0.80
2024-03-13T23:40:25.422Z,0.80
2024-03-13T23:42:34.122Z,0.60
2024-03-13T23:44:42.671Z,0.90
2024-03-13T23:46:52.012Z,0.50
2024-03-13T23:49:01.479Z,0.60
2024-03-13T23:51:16.721Z,0.60
2024-03-13T23:53:25.445Z,0.80
2024-03-13T23:55:34.222Z,0.60
2024-03-13T23:57:43.959Z,0.60
2024-03-13T23:59:53.024Z,0.80
